Time;durP1;ratioP1;P1;durP2;ratioP2;P2;SDS_P1;SDS_P2;PMS_P1;PMS_P2;Temp;Humidity;BMP_temperature;BMP_pressure;BME280_temperature;BME280_humidity;BME280_pressure;Samples;Min_cycle;Max_cycle;Signal;HPM_P1;HPM_P2
2023/05/19 00:03:53;;;;;;;11.23;6.03;;;;;;;;;;10414340;28;20017;-73
2023/05/19 00:08:53;;;;;;;;;;;;;;;;;;10415363;28;20056;-74
2023/05/19 00:13:54;;;;;;;12.10;6.72;;;;;;;;;;10414147;28;19905;-73
2023/05/19 00:18:55;;;;;;;10.82;6.60;;;;;;;;;;10414144;28;20032;-73
2023/05/19 00:23:56;;;;;;;12.73;7.20;;;;;;;;;;10414344;28;20022;-73
2023/05/19 00:28:56;;;;;;;11.13;6.78;;;;;;;;;;10404741;28;20098;-73
2023/05/19 00:33:56;;;;;;;16.38;7.60;;;;;;;;;;10410829;28;20338;-74
2023/05/19 00:38:57;;;;;;;18.43;7.90;;;;;;;;;;10413796;28;20029;-73
2023/05/19 00:43:57;;;;;;;18.80;7.53;;;;;;;;;;10413209;28;20018;-72
2023/05/19 00:48:57;;;;;;;11.18;6.78;;;;;;;;;;10413304;28;20622;-73
2023/05/19 00:53:58;;;;;;;13.07;7.30;;;;;;;;;;10413412;28;20033;-73
2023/05/19 00:58:58;;;;;;;17.43;8.03;;;;;;;;;;10414588;28;20093;-73
2023/05/19 01:03:58;;;;;;;13.07;7.33;;;;;;;;;;10401967;28;20574;-74
2023/05/19 01:08:59;;;;;;;11.38;7.28;;;;;;;;;;10379568;28;20029;-74
2023/05/19 01:13:59;;;;;;;11.95;7.10;;;;;;;;;;10380961;28;20034;-74
2023/05/19 01:19:02;;;;;;;11.30;7.33;;;;;;;;;;10380217;28;20386;-74
2023/05/19 01:24:05;;;;;;;11.07;6.90;;;;;;;;;;10380371;28;20022;-74
2023/05/19 01:29:24;;;;;;;17.95;7.55;;;;;;;;;;10379921;28;20049;-74
2023/05/19 01:34:25;;;;;;;13.85;6.72;;;;;;;;;;10378744;28;20030;-74
2023/05/19 01:39:26;;;;;;;13.75;8.63;;;;;;;;;;10379661;28;20034;-73
2023/05/19 01:44:26;;;;;;;18.38;9.48;;;;;;;;;;10379827;28;20560;-73
2023/05/19 01:49:27;;;;;;;18.33;8.75;;;;;;;;;;10379050;28;20036;-73
2023/05/19 01:54:27;;;;;;;16.50;9.03;;;;;;;;;;10378597;28;20041;-74
2023/05/19 01:59:39;;;;;;;13.80;8.55;;;;;;;;;;10379271;28;20518;-74
2023/05/19 02:04:43;;;;;;;14.25;9.00;;;;;;;;;;10378488;28;20030;-72
2023/05/19 02:09:51;;;;;;;16.38;9.10;;;;;;;;;;10378483;28;20315;-73
2023/05/19 02:14:57;;;;;;;18.83;8.95;;;;;;;;;;10377500;28;20133;-74
2023/05/19 02:19:57;;;;;;;15.80;8.75;;;;;;;;;;10378391;28;20029;-74
2023/05/19 02:24:57;;;;;;;21.27;9.55;;;;;;;;;;10377947;28;20040;-74
2023/05/19 02:29:58;;;;;;;16.48;8.80;;;;;;;;;;10377744;28;20100;-73
2023/05/19 02:34:58;;;;;;;20.25;10.63;;;;;;;;;;10377586;28;20097;-73
2023/05/19 02:39:59;;;;;;;22.38;10.15;;;;;;;;;;10396256;28;20114;-73
2023/05/19 02:44:59;;;;;;;16.77;10.55;;;;;;;;;;10418140;28;20521;-74
2023/05/19 02:49:59;;;;;;;16.08;8.93;;;;;;;;;;10396519;28;20080;-74
2023/05/19 02:55:00;;;;;;;24.20;10.93;;;;;;;;;;10376127;28;20042;-73
2023/05/19 03:00:00;;;;;;;22.88;11.43;;;;;;;;;;10401059;28;20231;-72
2023/05/19 03:05:02;;;;;;;23.77;11.32;;;;;;;;;;10409006;28;20033;-73
2023/05/19 03:10:04;;;;;;;22.50;12.18;;;;;;;;;;10411197;28;20105;-72
2023/05/19 03:15:05;;;;;;;27.02;10.88;;;;;;;;;;10413351;28;21357;-73
2023/05/19 03:20:06;;;;;;;22.42;11.98;;;;;;;;;;10412999;28;20210;-73
2023/05/19 03:25:06;;;;;;;24.98;12.68;;;;;;;;;;10407429;28;20204;-71
2023/05/19 03:30:07;;;;;;;24.73;12.55;;;;;;;;;;10412790;28;20722;-73
2023/05/19 03:35:08;;;;;;;27.98;12.77;;;;;;;;;;10411073;28;20270;-72
2023/05/19 03:40:09;;;;;;;31.53;13.83;;;;;;;;;;10412189;28;20112;-74
2023/05/19 03:45:09;;;;;;;24.67;13.23;;;;;;;;;;10426719;28;20044;-74
2023/05/19 03:50:09;;;;;;;36.80;13.00;;;;;;;;;;10414310;28;20272;-73
2023/05/19 03:55:10;;;;;;;24.77;13.55;;;;;;;;;;10386755;28;20553;-73
2023/05/19 04:00:11;;;;;;;38.80;14.27;;;;;;;;;;10409238;28;20326;-73
2023/05/19 04:05:15;;;;;;;31.73;13.48;;;;;;;;;;10413413;28;20039;-73
2023/05/19 04:10:16;;;;;;;25.63;12.23;;;;;;;;;;10399173;28;20033;-72
2023/05/19 04:15:16;;;;;;;23.20;12.57;;;;;;;;;;10413392;28;20047;-73
2023/05/19 04:20:16;;;;;;;19.67;10.55;;;;;;;;;;10412215;28;20052;-73
2023/05/19 04:25:18;;;;;;;21.58;11.23;;;;;;;;;;10412477;28;20025;-73
2023/05/19 04:30:21;;;;;;;20.60;10.65;;;;;;;;;;10411946;28;20063;-73
2023/05/19 04:35:21;;;;;;;28.55;12.30;;;;;;;;;;10416588;28;20041;-73
2023/05/19 04:40:24;;;;;;;17.17;9.82;;;;;;;;;;10405813;28;20220;-74
2023/05/19 04:45:24;;;;;;;17.92;9.40;;;;;;;;;;10408591;28;20287;-73
2023/05/19 04:50:25;;;;;;;19.37;8.80;;;;;;;;;;10398628;28;20048;-73
2023/05/19 04:55:25;;;;;;;19.95;9.32;;;;;;;;;;10408458;28;20045;-72
2023/05/19 05:00:25;;;;;;;17.10;9.23;;;;;;;;;;10410830;28;20403;-72
2023/05/19 05:05:26;;;;;;;14.77;9.57;;;;;;;;;;10372465;28;20037;-73
2023/05/19 05:10:26;;;;;;;21.75;9.43;;;;;;;;;;10397818;28;20030;-72
2023/05/19 05:15:29;;;;;;;14.63;7.77;;;;;;;;;;10396525;28;20029;-73
2023/05/19 05:20:30;;;;;;;28.40;9.25;;;;;;;;;;10412587;28;20080;-73
2023/05/19 05:25:30;;;;;;;15.80;7.90;;;;;;;;;;10413599;28;20037;-73
2023/05/19 05:30:32;;;;;;;14.67;9.20;;;;;;;;;;10412247;28;20037;-73
2023/05/19 05:35:32;;;;;;;14.65;7.25;;;;;;;;;;10412607;28;20493;-74
2023/05/19 05:40:33;;;;;;;13.55;7.78;;;;;;;;;;10412270;28;20040;-73
2023/05/19 05:45:33;;;;;;;18.38;9.05;;;;;;;;;;10384570;28;20320;-72
2023/05/19 05:50:33;;;;;;;16.92;8.77;;;;;;;;;;10413734;28;20080;-73
2023/05/19 05:55:34;;;;;;;13.00;7.40;;;;;;;;;;10417951;28;20366;-73
2023/05/19 06:00:35;;;;;;;14.57;6.63;;;;;;;;;;10419005;28;20085;-73
2023/05/19 06:05:36;;;;;;;15.10;6.32;;;;;;;;;;10419194;28;20037;-73
2023/05/19 06:10:37;;;;;;;14.13;6.15;;;;;;;;;;10419103;28;20037;-72
2023/05/19 06:15:38;;;;;;;13.63;7.10;;;;;;;;;;10395421;28;20219;-72
2023/05/19 06:20:38;;;;;;;13.43;6.67;;;;;;;;;;10410120;28;20025;-72
2023/05/19 06:25:38;;;;;;;21.20;7.63;;;;;;;;;;10418184;28;20061;-73
2023/05/19 06:30:38;;;;;;;14.30;6.07;;;;;;;;;;10417830;28;20048;-73
2023/05/19 06:35:39;;;;;;;23.85;7.97;;;;;;;;;;10418106;28;20068;-73
2023/05/19 06:40:39;;;;;;;10.45;5.75;;;;;;;;;;10417645;28;20136;-73
2023/05/19 06:45:40;;;;;;;10.45;5.20;;;;;;;;;;10417004;28;20183;-73
2023/05/19 06:50:40;;;;;;;20.67;6.37;;;;;;;;;;10417430;28;20513;-72
2023/05/19 06:55:40;;;;;;;15.27;4.47;;;;;;;;;;10448926;28;20039;-72
2023/05/19 07:00:41;;;;;;;16.70;4.95;;;;;;;;;;10420171;28;20029;-73
2023/05/19 07:05:41;;;;;;;11.45;4.55;;;;;;;;;;10417297;28;20361;-73
2023/05/19 07:10:41;;;;;;;10.77;4.70;;;;;;;;;;10419349;28;20033;-73
2023/05/19 07:15:41;;;;;;;13.68;5.18;;;;;;;;;;10457562;28;20478;-73
2023/05/19 07:20:42;;;;;;;10.37;5.57;;;;;;;;;;10417321;28;20096;-72
2023/05/19 07:25:42;;;;;;;14.27;4.78;;;;;;;;;;10416511;28;20021;-73
2023/05/19 07:30:42;;;;;;;11.13;4.82;;;;;;;;;;10457193;28;20075;-73
2023/05/19 07:35:44;;;;;;;11.52;6.35;;;;;;;;;;10437416;28;20311;-72
2023/05/19 07:40:44;;;;;;;11.40;5.57;;;;;;;;;;10415870;28;20526;-72
2023/05/19 07:45:45;;;;;;;9.13;5.88;;;;;;;;;;10415196;28;20037;-72
2023/05/19 07:50:45;;;;;;;8.20;5.50;;;;;;;;;;10414548;28;20045;-73
2023/05/19 07:55:45;;;;;;;11.33;5.63;;;;;;;;;;10381896;28;20057;-73
2023/05/19 08:00:46;;;;;;;8.50;5.13;;;;;;;;;;10373665;28;20265;-73
2023/05/19 08:05:46;;;;;;;11.40;5.78;;;;;;;;;;10373845;28;20360;-73
2023/05/19 08:10:46;;;;;;;9.77;4.90;;;;;;;;;;10372747;28;20104;-73
2023/05/19 08:15:46;;;;;;;18.48;5.32;;;;;;;;;;10376616;28;20025;-72
2023/05/19 08:20:47;;;;;;;10.20;5.30;;;;;;;;;;10396600;28;20447;-73
2023/05/19 08:25:47;;;;;;;8.05;5.13;;;;;;;;;;10391203;28;20034;-73
2023/05/19 08:30:49;;;;;;;11.10;5.60;;;;;;;;;;10372865;28;20447;-74
2023/05/19 08:35:49;;;;;;;14.80;5.20;;;;;;;;;;10373007;28;20029;-73
2023/05/19 08:40:49;;;;;;;10.97;5.30;;;;;;;;;;10372569;28;20096;-74
2023/05/19 08:45:52;;;;;;;9.03;5.10;;;;;;;;;;10373007;28;20450;-73
2023/05/19 08:50:57;;;;;;;8.13;5.15;;;;;;;;;;10372427;28;20265;-74
2023/05/19 08:56:00;;;;;;;17.02;4.97;;;;;;;;;;10372183;28;20045;-72
2023/05/19 09:01:02;;;;;;;13.10;5.00;;;;;;;;;;10372237;28;20065;-73
2023/05/19 09:06:11;;;;;;;8.50;5.25;;;;;;;;;;10371542;28;20354;-73
2023/05/19 09:11:11;;;;;;;11.75;4.82;;;;;;;;;;10372266;28;20350;-73
2023/05/19 09:16:12;;;;;;;10.77;5.37;;;;;;;;;;10371925;28;20205;-73
2023/05/19 09:21:12;;;;;;;20.00;6.13;;;;;;;;;;10374958;28;20032;-72
2023/05/19 09:26:13;;;;;;;17.25;5.65;;;;;;;;;;10379976;28;20359;-73
2023/05/19 09:31:14;;;;;;;11.23;6.05;;;;;;;;;;10379130;28;20232;-73
2023/05/19 09:36:14;;;;;;;10.68;6.72;;;;;;;;;;10379295;28;20072;-72
2023/05/19 09:41:15;;;;;;;10.27;5.40;;;;;;;;;;10379130;28;20025;-73
2023/05/19 09:46:15;;;;;;;13.73;6.23;;;;;;;;;;10379008;28;20017;-73
2023/05/19 09:51:16;;;;;;;10.52;5.75;;;;;;;;;;10378847;28;20045;-73
2023/05/19 09:56:16;;;;;;;11.77;5.60;;;;;;;;;;10415327;28;20278;-72
2023/05/19 10:01:17;;;;;;;9.90;5.85;;;;;;;;;;10382287;28;20326;-72
2023/05/19 10:06:17;;;;;;;11.97;5.83;;;;;;;;;;10403993;28;20044;-72
2023/05/19 10:11:18;;;;;;;17.38;5.78;;;;;;;;;;10418294;28;20021;-72
2023/05/19 10:16:20;;;;;;;11.87;5.90;;;;;;;;;;10418926;28;20072;-73
2023/05/19 10:21:20;;;;;;;9.65;5.45;;;;;;;;;;10418395;28;20357;-73
2023/05/19 10:26:21;;;;;;;10.30;6.03;;;;;;;;;;10418467;28;20029;-73
2023/05/19 10:31:22;;;;;;;10.38;5.40;;;;;;;;;;10417734;28;20541;-73
2023/05/19 10:36:28;;;;;;;9.00;5.40;;;;;;;;;;10417400;28;20041;-72
2023/05/19 10:41:46;;;;;;;10.05;5.38;;;;;;;;;;10418065;28;20029;-72
2023/05/19 10:46:47;;;;;;;12.68;5.00;;;;;;;;;;10417361;28;20041;-73
2023/05/19 10:51:47;;;;;;;8.40;5.32;;;;;;;;;;10402797;28;20068;-74
2023/05/19 10:56:47;;;;;;;7.80;4.40;;;;;;;;;;10393806;28;20333;-73
2023/05/19 11:01:48;;;;;;;11.17;5.50;;;;;;;;;;10417266;28;20037;-73
2023/05/19 11:06:50;;;;;;;8.88;5.32;;;;;;;;;;10416787;28;20037;-74
2023/05/19 11:11:53;;;;;;;9.25;5.97;;;;;;;;;;10416776;28;20342;-73
2023/05/19 11:16:57;;;;;;;10.80;5.50;;;;;;;;;;10416333;28;20035;-73
2023/05/19 11:22:07;;;;;;;15.75;6.43;;;;;;;;;;10416264;28;20037;-73
2023/05/19 11:27:17;;;;;;;10.10;6.38;;;;;;;;;;10416285;28;20040;-73
2023/05/19 11:32:18;;;;;;;10.90;6.65;;;;;;;;;;10411462;28;20076;-73
2023/05/19 11:37:19;;;;;;;16.38;7.43;;;;;;;;;;10392287;28;20204;-73
2023/05/19 11:42:19;;;;;;;18.88;8.02;;;;;;;;;;10393567;28;20049;-70
2023/05/19 11:47:21;;;;;;;18.67;8.23;;;;;;;;;;10387649;28;20038;-69
2023/05/19 11:52:26;;;;;;;15.10;8.15;;;;;;;;;;10397962;28;20069;-73
2023/05/19 11:57:29;;;;;;;18.80;9.95;;;;;;;;;;10392142;28;20504;-69
2023/05/19 12:02:30;;;;;;;16.15;9.75;;;;;;;;;;10392153;28;20033;-69
2023/05/19 12:07:30;;;;;;;14.43;7.60;;;;;;;;;;10390863;28;20236;-72
2023/05/19 12:12:31;;;;;;;8.00;5.30;;;;;;;;;;10391346;28;20128;-71
2023/05/19 12:17:31;;;;;;;9.50;6.20;;;;;;;;;;10391052;28;20124;-71
2023/05/19 12:22:31;;;;;;;14.23;7.43;;;;;;;;;;10389051;28;20377;-70
2023/05/19 12:27:34;;;;;;;9.87;6.07;;;;;;;;;;10378343;28;20141;-70
2023/05/19 12:32:35;;;;;;;10.70;6.40;;;;;;;;;;10397606;28;20042;-70
2023/05/19 12:37:35;;;;;;;12.63;6.65;;;;;;;;;;10391939;28;20049;-69
2023/05/19 12:42:36;;;;;;;12.38;6.40;;;;;;;;;;10389520;28;20045;-70
2023/05/19 12:47:36;;;;;;;15.23;7.50;;;;;;;;;;10392953;28;20338;-73
2023/05/19 12:52:44;;;;;;;18.33;7.05;;;;;;;;;;10385670;28;20247;-73
2023/05/19 12:57:47;;;;;;;9.15;5.63;;;;;;;;;;10393935;28;20231;-73
2023/05/19 13:02:54;;;;;;;12.88;6.38;;;;;;;;;;10399773;28;20330;-74
2023/05/19 13:07:55;;;;;;;10.23;5.75;;;;;;;;;;10394104;28;20257;-74
2023/05/19 13:12:55;;;;;;;11.00;4.38;;;;;;;;;;10384836;28;20101;-74
2023/05/19 13:17:56;;;;;;;15.57;5.15;;;;;;;;;;10397622;28;20316;-73
2023/05/19 13:22:56;;;;;;;7.03;4.65;;;;;;;;;;10404857;28;20033;-73
2023/05/19 13:27:59;;;;;;;9.83;4.63;;;;;;;;;;10397404;28;20263;-74
2023/05/19 13:33:00;;;;;;;9.70;5.05;;;;;;;;;;10402407;28;20038;-75
2023/05/19 13:38:03;;;;;;;7.35;4.72;;;;;;;;;;10393035;28;20042;-74
2023/05/19 13:43:03;;;;;;;9.38;4.97;;;;;;;;;;10395630;28;20033;-74
2023/05/19 13:48:05;;;;;;;10.60;5.10;;;;;;;;;;10390946;28;20053;-74
2023/05/19 13:53:07;;;;;;;14.18;5.93;;;;;;;;;;10407120;28;20060;-73
2023/05/19 13:58:09;;;;;;;11.18;5.50;;;;;;;;;;10384095;28;20042;-73
2023/05/19 14:03:10;;;;;;;12.52;6.05;;;;;;;;;;10403110;28;20308;-73
2023/05/19 14:08:11;;;;;;;10.57;6.13;;;;;;;;;;10385094;28;20025;-74
2023/05/19 14:13:11;;;;;;;11.77;5.97;;;;;;;;;;10406811;28;20033;-73
2023/05/19 14:18:11;;;;;;;13.65;6.68;;;;;;;;;;10403435;28;20362;-74
2023/05/19 14:23:13;;;;;;;10.65;6.03;;;;;;;;;;10399154;28;20022;-75
2023/05/19 14:28:14;;;;;;;12.15;5.95;;;;;;;;;;10397981;28;20083;-73
2023/05/19 14:33:15;;;;;;;10.83;7.40;;;;;;;;;;10404900;28;20466;-74
2023/05/19 14:38:15;;;;;;;17.45;5.78;;;;;;;;;;10412305;28;20362;-74
2023/05/19 14:43:16;;;;;;;14.45;6.93;;;;;;;;;;10401109;28;20103;-74
2023/05/19 14:48:16;;;;;;;9.75;5.70;;;;;;;;;;10412744;28;20045;-73
2023/05/19 14:53:16;;;;;;;10.93;6.20;;;;;;;;;;10415753;28;20049;-73
2023/05/19 14:58:17;;;;;;;9.20;5.82;;;;;;;;;;10416027;28;20033;-74
2023/05/19 15:03:17;;;;;;;12.40;6.43;;;;;;;;;;10416554;28;20049;-73
2023/05/19 15:08:17;;;;;;;10.65;5.90;;;;;;;;;;10416279;28;20313;-73
2023/05/19 15:13:17;;;;;;;11.35;5.78;;;;;;;;;;10407297;28;20048;-74
2023/05/19 15:18:18;;;;;;;9.13;5.88;;;;;;;;;;10415057;28;20246;-73
2023/05/19 15:23:18;;;;;;;11.48;5.63;;;;;;;;;;10415705;28;20029;-73
2023/05/19 15:28:18;;;;;;;12.38;6.05;;;;;;;;;;10415638;28;20272;-73
2023/05/19 15:33:19;;;;;;;17.92;6.22;;;;;;;;;;10415204;28;20034;-73
2023/05/19 15:38:19;;;;;;;12.90;5.95;;;;;;;;;;10415410;28;20049;-73
2023/05/19 15:43:20;;;;;;;7.55;5.63;;;;;;;;;;10414649;28;20048;-74
2023/05/19 15:48:20;;;;;;;14.18;5.45;;;;;;;;;;10419873;28;20325;-73
2023/05/19 15:53:22;;;;;;;13.98;5.88;;;;;;;;;;10414360;28;20041;-73
2023/05/19 15:58:22;;;;;;;13.80;6.15;;;;;;;;;;10412848;28;20299;-73
2023/05/19 16:03:22;;;;;;;16.65;6.65;;;;;;;;;;10413355;28;20029;-73
2023/05/19 16:08:22;;;;;;;10.88;6.47;;;;;;;;;;10412983;28;20021;-72
2023/05/19 16:13:23;;;;;;;12.48;6.63;;;;;;;;;;10413840;28;20052;-72
2023/05/19 16:18:23;;;;;;;14.00;6.82;;;;;;;;;;10413690;28;20037;-75
2023/05/19 16:23:23;;;;;;;12.18;5.97;;;;;;;;;;10413794;28;20223;-73
2023/05/19 16:28:24;;;;;;;16.10;6.65;;;;;;;;;;10412483;28;20041;-73
2023/05/19 16:33:25;;;;;;;12.82;7.10;;;;;;;;;;10384818;28;20045;-75
2023/05/19 16:38:28;;;;;;;18.98;7.20;;;;;;;;;;10372672;28;20029;-74
2023/05/19 16:43:28;;;;;;;11.93;6.35;;;;;;;;;;10372429;28;20058;-74
2023/05/19 16:48:28;;;;;;;10.97;6.50;;;;;;;;;;10372857;28;20425;-74
2023/05/19 16:53:29;;;;;;;14.35;7.95;;;;;;;;;;10372205;28;20112;-74
2023/05/19 16:58:30;;;;;;;14.02;7.35;;;;;;;;;;10372296;28;20280;-74
2023/05/19 17:03:30;;;;;;;19.20;7.97;;;;;;;;;;10386209;28;20026;-74
2023/05/19 17:08:30;;;;;;;12.70;7.38;;;;;;;;;;10412822;28;20169;-74
2023/05/19 17:13:35;;;;;;;13.52;7.20;;;;;;;;;;10412878;28;20251;-74
2023/05/19 17:18:36;;;;;;;17.27;8.40;;;;;;;;;;10389989;28;20045;-74
2023/05/19 17:23:37;;;;;;;10.45;6.93;;;;;;;;;;10383208;28;20032;-74
2023/05/19 17:28:37;;;;;;;14.02;8.15;;;;;;;;;;10371564;28;20247;-74
2023/05/19 17:33:37;;;;;;;13.32;8.05;;;;;;;;;;10371655;28;20395;-74
2023/05/19 17:38:39;;;;;;;15.15;8.02;;;;;;;;;;10371767;28;20354;-74
2023/05/19 17:43:40;;;;;;;20.25;8.15;;;;;;;;;;10375024;28;20354;-74
2023/05/19 17:48:40;;;;;;;15.82;8.40;;;;;;;;;;10386518;28;20053;-75
2023/05/19 17:53:41;;;;;;;16.07;8.17;;;;;;;;;;10379711;28;20045;-75
2023/05/19 17:58:42;;;;;;;20.45;8.77;;;;;;;;;;10395084;28;20232;-81
2023/05/19 18:03:48;;;;;;;14.85;9.23;;;;;;;;;;10395225;28;20466;-77
2023/05/19 18:08:50;;;;;;;14.90;8.95;;;;;;;;;;10390842;28;20029;-78
2023/05/19 18:13:50;;;;;;;18.05;8.98;;;;;;;;;;10394565;28;20216;-77
2023/05/19 18:18:50;;;;;;;15.03;8.63;;;;;;;;;;10390407;28;20029;-78
2023/05/19 18:23:51;;;;;;;20.27;9.73;;;;;;;;;;10387799;28;20387;-76
2023/05/19 18:28:51;;;;;;;17.95;7.85;;;;;;;;;;10389225;28;20034;-79
2023/05/19 18:33:51;;;;;;;15.13;6.93;;;;;;;;;;10393705;28;20045;-77
2023/05/19 18:38:52;;;;;;;14.23;8.00;;;;;;;;;;10390088;28;20029;-78
2023/05/19 18:43:52;;;;;;;22.05;8.73;;;;;;;;;;10387559;28;20343;-75
2023/05/19 18:48:52;;;;;;;15.88;8.43;;;;;;;;;;10391563;28;20090;-76
2023/05/19 18:53:53;;;;;;;16.80;8.60;;;;;;;;;;10385282;28;20046;-72
2023/05/19 18:58:53;;;;;;;20.95;8.40;;;;;;;;;;10388218;28;20121;-76
2023/05/19 19:03:53;;;;;;;13.18;7.65;;;;;;;;;;10390186;28;20337;-76
2023/05/19 19:08:54;;;;;;;17.60;8.55;;;;;;;;;;10383152;28;20072;-73
2023/05/19 19:13:55;;;;;;;13.45;7.18;;;;;;;;;;10386490;28;20068;-75
2023/05/19 19:18:55;;;;;;;12.90;7.10;;;;;;;;;;10384252;28;20029;-73
2023/05/19 19:23:56;;;;;;;19.75;9.23;;;;;;;;;;10383768;28;20064;-74
2023/05/19 19:28:57;;;;;;;21.95;7.63;;;;;;;;;;10389284;28;20038;-85
2023/05/19 19:34:01;;;;;;;14.30;7.85;;;;;;;;;;10382828;28;20286;-74
2023/05/19 19:39:02;;;;;;;19.95;8.55;;;;;;;;;;10384904;28;20049;-74
2023/05/19 19:44:02;;;;;;;18.60;7.45;;;;;;;;;;10380163;28;20295;-74
2023/05/19 19:49:03;;;;;;;12.15;6.65;;;;;;;;;;10385974;28;20052;-73
2023/05/19 19:54:03;;;;;;;16.23;6.50;;;;;;;;;;10388142;28;20320;-76
2023/05/19 19:59:04;;;;;;;16.60;7.27;;;;;;;;;;10392344;28;21479;-73
2023/05/19 20:04:04;;;;;;;15.30;5.85;;;;;;;;;;10381188;28;20137;-74
2023/05/19 20:09:05;;;;;;;15.55;6.72;;;;;;;;;;10383469;28;20041;-75
2023/05/19 20:14:06;;;;;;;15.63;6.88;;;;;;;;;;10384126;28;20246;-76
2023/05/19 20:19:06;;;;;;;16.17;6.93;;;;;;;;;;10386467;28;20338;-75
2023/05/19 20:24:06;;;;;;;17.02;7.20;;;;;;;;;;10399002;28;20128;-76
2023/05/19 20:29:06;;;;;;;12.82;7.50;;;;;;;;;;10386009;28;20302;-75
2023/05/19 20:34:07;;;;;;;23.73;7.28;;;;;;;;;;10386040;28;20045;-77
2023/05/19 20:39:08;;;;;;;15.10;7.40;;;;;;;;;;10386372;28;20033;-72
2023/05/19 20:44:10;;;;;;;14.25;7.60;;;;;;;;;;10388373;28;20053;-72
2023/05/19 20:49:10;;;;;;;12.88;7.80;;;;;;;;;;10399501;28;20045;-72
2023/05/19 20:54:11;;;;;;;13.05;6.82;;;;;;;;;;10401464;28;20434;-72
2023/05/19 20:59:11;;;;;;;19.77;8.50;;;;;;;;;;10401101;28;20025;-72
2023/05/19 21:04:11;;;;;;;14.18;7.47;;;;;;;;;;10384914;28;20060;-72
2023/05/19 21:09:13;;;;;;;14.90;8.63;;;;;;;;;;10399132;28;20163;-72
2023/05/19 21:14:13;;;;;;;16.63;8.23;;;;;;;;;;10383733;28;20215;-73
2023/05/19 21:19:14;;;;;;;15.60;7.20;;;;;;;;;;10397930;28;20042;-73
2023/05/19 21:24:14;;;;;;;18.70;8.35;;;;;;;;;;10386032;28;20032;-73
2023/05/19 21:29:14;;;;;;;18.92;8.45;;;;;;;;;;10422883;28;20323;-72
2023/05/19 21:34:14;;;;;;;20.55;8.57;;;;;;;;;;10422441;28;20033;-71
2023/05/19 21:39:15;;;;;;;16.52;8.70;;;;;;;;;;10395943;28;20064;-72
2023/05/19 21:44:15;;;;;;;16.90;8.83;;;;;;;;;;10384232;28;20052;-72
2023/05/19 21:49:16;;;;;;;14.15;7.88;;;;;;;;;;10421710;28;20318;-73
2023/05/19 21:54:16;;;;;;;17.13;7.85;;;;;;;;;;10421147;28;20104;-72
2023/05/19 21:59:16;;;;;;;18.80;8.73;;;;;;;;;;10422392;28;20029;-73
2023/05/19 22:04:17;;;;;;;13.55;8.50;;;;;;;;;;10421003;28;20251;-73
2023/05/19 22:09:17;;;;;;;22.65;9.93;;;;;;;;;;10420890;28;20238;-73
2023/05/19 22:14:17;;;;;;;17.48;8.82;;;;;;;;;;10421232;28;20036;-73
2023/05/19 22:19:18;;;;;;;39.67;9.82;;;;;;;;;;10420240;28;20243;-73
2023/05/19 22:24:18;;;;;;;20.50;8.85;;;;;;;;;;10419914;28;20123;-73
2023/05/19 22:29:19;;;;;;;22.52;10.07;;;;;;;;;;10419792;28;20597;-73
2023/05/19 22:34:19;;;;;;;26.63;10.18;;;;;;;;;;10420002;28;20208;-73
2023/05/19 22:39:20;;;;;;;18.65;10.02;;;;;;;;;;10435205;28;20441;-73
2023/05/19 22:44:20;;;;;;;21.80;10.75;;;;;;;;;;10419962;28;20223;-73
2023/05/19 22:49:24;;;;;;;28.85;11.52;;;;;;;;;;10418912;28;20033;-73
2023/05/19 22:54:24;;;;;;;23.92;11.80;;;;;;;;;;10418904;28;20103;-73
2023/05/19 22:59:24;;;;;;;20.67;11.75;;;;;;;;;;10418955;28;20037;-73
2023/05/19 23:04:25;;;;;;;23.58;12.27;;;;;;;;;;10417574;28;20056;-72
2023/05/19 23:09:29;;;;;;;17.80;10.73;;;;;;;;;;10415594;28;20041;-73
2023/05/19 23:14:30;;;;;;;27.38;12.05;;;;;;;;;;10415838;28;20091;-72
2023/05/19 23:19:32;;;;;;;19.70;10.80;;;;;;;;;;10414675;28;20038;-73
2023/05/19 23:24:32;;;;;;;25.45;11.15;;;;;;;;;;10417887;28;20037;-72
2023/05/19 23:29:32;;;;;;;16.67;10.05;;;;;;;;;;10418155;28;20037;-73
2023/05/19 23:34:32;;;;;;;18.00;11.38;;;;;;;;;;10417420;28;20044;-72
2023/05/19 23:39:33;;;;;;;21.35;10.30;;;;;;;;;;10415625;28;20024;-73
2023/05/19 23:44:33;;;;;;;22.13;10.82;;;;;;;;;;10417166;28;20312;-72
2023/05/19 23:49:33;;;;;;;21.88;11.13;;;;;;;;;;10416985;28;20086;-72
2023/05/19 23:54:33;;;;;;;20.95;10.90;;;;;;;;;;10416804;28;20068;-71
2023/05/19 23:59:34;;;;;;;21.15;10.38;;;;;;;;;;10416472;28;20040;-71
